Private Wetterstation Sandau
Wetterdaten: Juli 2012
Datum Temp. A. Feuchte A. Luftdruck Regen Wind Richtung Taupunkt Windchill
01.07.2012 21,2 C 71 % 1016,0 hPa 21,8 l/m 5,6 km/h (1 Bft) W 15,5 C 21,2 C
02.07.2012 18,3 C 70 % 1021,4 hPa 2,6 l/m 12,2 km/h (2 Bft) W 12,3 C 18,3 C
03.07.2012 20,0 C 72 % 1018,3 hPa 0,0 l/m 1,6 km/h (1 Bft) N-NO 14,7 C 20,0 C
04.07.2012 22,1 C 68 % 1016,2 hPa 0,0 l/m 5,4 km/h (1 Bft) O-NO 15,7 C 22,1 C
05.07.2012 22,3 C 76 % 1012,6 hPa 0,5 l/m 9,4 km/h (2 Bft) O-NO 17,7 C 22,3 C
06.07.2012 23,3 C 75 % 1011,3 hPa 0,0 l/m 2,9 km/h (1 Bft) NO 18,4 C 23,3 C
07.07.2012 21,1 C 72 % 1013,3 hPa 0,5 l/m 2,5 km/h (1 Bft) N 15,8 C 21,1 C
08.07.2012 24,0 C 58 % 1009,2 hPa 3,1 l/m 10,6 km/h (2 Bft) SO 15,2 C 24,0 C
09.07.2012 21,1 C 60 % 1010,5 hPa 0,0 l/m 7,0 km/h (2 Bft) W-SW 12,8 C 21,1 C
10.07.2012 20,9 C 60 % 1012,1 hPa 0,0 l/m 8,3 km/h (2 Bft) W-SW 12,7 C 20,9 C
11.07.2012 17,5 C 72 % 1011,2 hPa 0,0 l/m 6,6 km/h (2 Bft) W-SW 12,0 C 17,5 C
12.07.2012 14,8 C 75 % 1012,0 hPa 1,6 l/m 12,6 km/h (3 Bft) W-SW 10,4 C 14,8 C
13.07.2012 15,5 C 85 % 1006,5 hPa 5,7 l/m 3,4 km/h (1 Bft) S-SO 12,9 C 15,5 C
14.07.2012 16,3 C 80 % 1003,9 hPa 9,8 l/m 13,4 km/h (3 Bft) W-SW 12,8 C 16,3 C
15.07.2012 17,1 C 68 % 1012,7 hPa 4,1 l/m 3,4 km/h (1 Bft) W-SW 10,8 C 17,1 C
16.07.2012 16,2 C 74 % 1019,5 hPa 6,2 l/m 6,1 km/h (2 Bft) W-SW 11,4 C 16,2 C
17.07.2012 16,9 C 73 % 1017,0 hPa 5,7 l/m 4,2 km/h (1 Bft) W-NW 11,9 C 16,9 C
18.07.2012 17,6 C 82 % 1011,0 hPa 13,5 l/m 5,4 km/h (1 Bft) W-SW 14,3 C 17,6 C
19.07.2012 15,2 C 83 % 1005,8 hPa 12,4 l/m 13,5 km/h (3 Bft) W-SW 12,3 C 15,2 C
20.07.2012 16,9 C 61 % 1014,1 hPa 0,0 l/m 6,8 km/h (2 Bft) W 9,2 C 16,9 C
21.07.2012 14,7 C 67 % 1020,6 hPa 0,0 l/m 5,5 km/h (1 Bft) W-NW 8,4 C 14,7 C
22.07.2012 18,1 C 58 % 1028,1 hPa 0,0 l/m 3,9 km/h (1 Bft) NW 9,6 C 18,1 C
23.07.2012 21,0 C 50 % 1027,4 hPa 0,0 l/m 2,2 km/h (1 Bft) S-SO 9,5 C 21,0 C
25.07.2012 26,3 C 61 % 1014,2 hPa 0,0 l/m 2,2 km/h (1 Bft) N 18,2 C 26,3 C
26.07.2012 26,0 C 54 % 1016,8 hPa 0,5 l/m 5,7 km/h (1 Bft) N-NO 15,5 C 26,0 C
27.07.2012 21,3 C 63 % 1017,1 hPa 0,0 l/m 4,0 km/h (1 Bft) SO 14,0 C 21,3 C
28.07.2012 20,8 C 74 % 1009,6 hPa 7,8 l/m 1,3 km/h (1 Bft) N-NO 15,9 C 20,8 C
29.07.2012 17,9 C 86 % 1009,8 hPa 4,7 l/m 5,4 km/h (1 Bft) O-NO 15,5 C 17,9 C
30.07.2012 17,6 C 63 % 1016,8 hPa 0,5 l/m 2,6 km/h (1 Bft) W-SW 10,4 C 17,6 C
31.07.2012 18,6 C 60 % 1018,9 hPa 0,0 l/m 0,8 km/h (0 Bft) W-SW 10,4 C 18,6 C
Min-Datum 21.07.12 23.07.12 14.07.12 17 Tage 01.07.12 - 22.07.12 21.07.12
Min-Zeit 04:36 16:16 09:01 - 00:01 - 15:56 04:36
Minimum 10,0 C 30 % 1000,1 hPa - 0,0 km/h (0 Bft) - 7,2 C 10,0 C
Max-Datum 26.07.12 14.07.12 23.07.12 01.07.12 19.07.12 - 06.07.12 26.07.12
Max-Zeit 15:36 04:11 08:51 03:36 13:51 - 14:16 15:36
Maximum 32,6 C 92 % 1030,6 hPa 21,8 l/m 36,0 km/h
W-SW (5 Bft)
- 20,3 C 32,6 C
Durchschnitt 19,3 C 69 % 1014,5 hPa #101,0 l/m 5,8 km/h (2 Bft) W-SW 13,2 C 19,3 C

Durchschnitt Minimum Temp.14,7 C
Durchschnitt Maximum Temp.24,6 C
(c) by David Heller